EST,Max TemperatureF,Mean TemperatureF,Min TemperatureF,Max Dew PointF,MeanDew PointF,Min DewpointF,Max Humidity, Mean Humidity, Min Humidity, Max Sea Level PressureIn, Mean Sea Level PressureIn, Min Sea Level PressureIn, Max VisibilityMiles, Mean VisibilityMiles, Min VisibilityMiles, Max Wind SpeedMPH, Mean Wind SpeedMPH, Max Gust SpeedMPH,PrecipitationIn, CloudCover, Events, WindDirDegrees
2013-2-1,32,29,26,16,11,6,52,45,38,30.16,29.89,29.75,,,,23,16,38,0.00,,,280
2013-2-2,30,28,25,22,13,5,81,55,43,30.30,30.17,30.08,,,,15,11,29,0.01,,,249
2013-2-3,32,28,25,23,18,15,85,66,52,30.06,29.89,29.75,,,,12,8,17,0.02,,,330
2013-2-4,30,28,27,18,13,8,66,51,40,29.99,29.88,29.78,,,,16,11,28,0.00,,,276
2013-2-5,33,30,28,29,23,13,89,75,51,30.01,29.96,29.91,,,,9,6,,0.02,,,40
2013-2-6,39,34,30,29,24,8,96,72,37,30.31,30.06,29.92,,,,16,7,25,0.00,,,311
2013-2-7,30,28,26,18,10,1,61,45,30,30.52,30.47,30.37,,,,13,8,18,0.00,,,39
2013-2-8,37,32,26,34,30,22,100,86,66,30.37,29.97,29.44,,,,29,13,48,1.33,,,56
2013-2-9,28,24,21,23,15,4,92,68,42,30.24,29.89,29.55,,,,28,22,48,0.09,,,326
2013-2-10,30,26,19,17,10,5,78,54,47,30.45,30.37,30.26,,,,18,12,29,0.00,,,296
2013-2-11,48,34,21,47,38,16,100,94,81,30.37,29.94,29.66,,,,13,4,20,0.49,,,207
2013-2-12,43,40,37,38,31,27,97,73,58,29.93,29.81,29.69,,,,15,8,26,0.00,,,266
2013-2-13,39,36,33,29,25,22,79,64,49,29.92,29.83,29.67,,,,9,4,,0.00,,,304
2013-2-14,39,36,33,32,29,26,96,79,58,30.03,29.88,29.70,,,,13,8,21,0.11,,,297
2013-2-15,46,41,32,38,36,30,97,87,71,30.05,30.01,29.96,,,,13,6,22,0.00,,,205
2013-2-16,39,36,32,38,32,28,93,85,73,29.95,29.85,29.66,,,,14,6,22,0.07,,,351
2013-2-17,30,26,19,26,13,4,88,60,41,29.81,29.62,29.52,,,,28,20,41,0.04,,,311
2013-2-18,32,26,19,16,11,5,57,51,41,30.23,30.10,29.83,,,,23,17,43,0.00,,,264
2013-2-19,46,39,32,46,37,16,100,81,52,30.20,29.90,29.65,,,,12,7,20,0.40,,,199
2013-2-20,37,34,28,29,19,12,70,55,42,29.87,29.75,29.65,,,,21,15,31,0.00,,,267
2013-2-21,34,30,27,17,15,13,63,53,43,30.18,29.94,29.87,,,,18,15,29,0.00,,,291
2013-2-22,37,32,28,26,23,19,73,64,57,30.38,30.34,30.24,,,,15,9,25,0.00,,,26
2013-2-23,41,38,36,36,33,28,93,81,73,30.30,30.12,29.82,,,,12,6,22,0.09,,,92
2013-2-24,39,36,34,37,35,31,100,93,86,29.90,29.75,29.67,,,,16,12,24,0.13,,,339
2013-2-25,39,34,30,31,28,26,92,77,63,30.26,30.14,29.93,,,,14,7,21,0.00,,,328
2013-2-26,42,38,33,36,31,27,92,79,60,30.33,30.26,30.05,,,,13,3,21,0.04,,,83
2013-2-27,45,42,39,44,41,36,100,94,82,29.97,29.67,29.57,,,,20,13,40,0.93,,,88
2013-2-28,44,40,37,39,37,35,97,89,79,29.65,29.60,29.55,,,,6,3,,0.00,,,259